Time;durP1;ratioP1;P1;durP2;ratioP2;P2;SDS_P1;SDS_P2;PMS_P1;PMS_P2;Temp;Humidity;BMP_temperature;BMP_pressure;BME280_temperature;BME280_humidity;BME280_pressure;Samples;Min_cycle;Max_cycle;Signal;HPM_P1;HPM_P2
2021/10/30 00:00:15;;;;;;;9.97;8.80;;;4.70;99.90;;;;;;5043684;28;20554;-73
2021/10/30 00:02:41;;;;;;;9.45;8.48;;;4.50;99.90;;;;;;5017523;28;20183;-74
2021/10/30 00:05:10;;;;;;;9.57;8.27;;;4.70;99.90;;;;;;5008308;28;20960;-75
2021/10/30 00:07:36;;;;;;;10.90;7.70;;;4.50;99.90;;;;;;5013829;28;20281;-73
2021/10/30 00:10:03;;;;;;;9.50;8.20;;;4.60;99.90;;;;;;5042420;28;20684;-74
2021/10/30 00:12:29;;;;;;;8.93;7.57;;;4.50;99.90;;;;;;5021598;28;20647;-74
2021/10/30 00:14:54;;;;;;;10.43;7.87;;;4.50;99.90;;;;;;5005050;28;20214;-73
2021/10/30 00:17:20;;;;;;;12.80;8.07;;;4.30;99.90;;;;;;5008587;28;20183;-73
2021/10/30 00:19:45;;;;;;;8.00;7.20;;;4.50;99.90;;;;;;5039954;28;20190;-73
2021/10/30 00:22:11;;;;;;;9.53;8.30;;;4.60;99.90;;;;;;5008479;28;20531;-73
2021/10/30 00:24:36;;;;;;;8.30;6.83;;;4.50;99.90;;;;;;5004094;28;20191;-75
2021/10/30 00:27:04;;;;;;;8.30;7.50;;;4.40;99.90;;;;;;5006327;28;20311;-74
2021/10/30 00:29:30;;;;;;;11.18;7.85;;;4.40;99.90;;;;;;5027768;28;20191;-73
2021/10/30 00:31:56;;;;;;;7.63;6.83;;;4.50;99.90;;;;;;5027200;28;20728;-73
2021/10/30 00:34:22;;;;;;;10.53;7.70;;;4.40;99.90;;;;;;5012186;28;20183;-74
2021/10/30 00:36:49;;;;;;;8.00;7.22;;;4.40;99.90;;;;;;5023227;28;20430;-73
2021/10/30 00:39:15;;;;;;;8.10;7.30;;;4.50;99.90;;;;;;5019811;28;20186;-73
2021/10/30 00:41:48;;;;;;;10.48;8.18;;;4.40;99.90;;;;;;5008882;28;20334;-74
2021/10/30 00:44:17;;;;;;;9.13;7.40;;;4.40;99.90;;;;;;5017901;28;20202;-74
2021/10/30 00:46:44;;;;;;;10.52;8.40;;;4.30;99.90;;;;;;5040308;28;20684;-73
2021/10/30 00:49:11;;;;;;;11.73;7.95;;;4.40;99.90;;;;;;5023135;28;20677;-73
2021/10/30 00:51:38;;;;;;;8.40;7.50;;;4.50;99.90;;;;;;5015859;28;20191;-74
2021/10/30 00:54:04;;;;;;;8.75;6.93;;;4.30;99.90;;;;;;5008141;28;20176;-74
2021/10/30 00:56:31;;;;;;;8.50;7.60;;;4.40;99.90;;;;;;5019692;28;20590;-73
2021/10/30 00:59:00;;;;;;;8.70;7.38;;;4.50;99.90;;;;;;5021925;28;20183;-74
2021/10/30 01:01:26;;;;;;;7.85;7.05;;;4.50;99.90;;;;;;5018773;28;20318;-73
2021/10/30 01:03:52;;;;;;;8.30;6.63;;;4.40;99.90;;;;;;5019684;28;20278;-73
2021/10/30 01:06:18;;;;;;;10.27;6.78;;;4.10;99.90;;;;;;5043256;28;20235;-73
2021/10/30 01:08:45;;;;;;;7.70;7.00;;;4.30;99.90;;;;;;5030755;28;20516;-74
2021/10/30 01:11:11;;;;;;;9.13;8.23;;;4.30;99.90;;;;;;5023947;28;20180;-73
2021/10/30 01:13:39;;;;;;;9.55;8.40;;;4.30;99.90;;;;;;5023587;28;20209;-74
2021/10/30 01:16:04;;;;;;;9.63;8.27;;;4.40;99.90;;;;;;5041819;28;20210;-74
2021/10/30 01:18:30;;;;;;;10.43;7.80;;;4.40;99.90;;;;;;5020502;28;20180;-73
2021/10/30 01:20:55;;;;;;;11.00;8.07;;;4.00;99.90;;;;;;5026020;28;20183;-73
2021/10/30 01:23:21;;;;;;;8.43;6.60;;;4.30;99.90;;;;;;5021907;28;20195;-74
2021/10/30 01:25:48;;;;;;;8.43;7.07;;;4.30;99.90;;;;;;5050792;28;20186;-73
2021/10/30 01:28:14;;;;;;;8.60;7.60;;;4.20;99.90;;;;;;5045587;28;20222;-73
2021/10/30 01:30:39;;;;;;;8.43;7.53;;;4.10;99.90;;;;;;5032011;28;20191;-74
2021/10/30 01:33:05;;;;;;;8.70;7.80;;;4.10;99.90;;;;;;5023495;28;20607;-73
2021/10/30 01:35:34;;;;;;;9.50;7.53;;;3.90;99.90;;;;;;5022168;28;20188;-73
2021/10/30 01:38:01;;;;;;;7.88;7.05;;;3.90;99.90;;;;;;5023845;28;20808;-74
2021/10/30 01:40:28;;;;;;;9.18;8.00;;;4.00;99.90;;;;;;5007540;28;20606;-73
2021/10/30 01:42:55;;;;;;;10.02;7.63;;;4.10;99.90;;;;;;5027993;28;20322;-73
2021/10/30 01:45:21;;;;;;;8.00;7.10;;;4.10;99.90;;;;;;5028442;28;20631;-73
2021/10/30 01:47:47;;;;;;;9.33;8.00;;;4.20;99.90;;;;;;5026950;28;20223;-74
2021/10/30 01:50:14;;;;;;;8.80;7.63;;;4.00;99.90;;;;;;5007199;28;20190;-73
2021/10/30 01:52:40;;;;;;;8.05;7.15;;;4.20;99.90;;;;;;5017528;28;20445;-74
2021/10/30 01:55:11;;;;;;;9.80;7.78;;;4.10;99.90;;;;;;5030261;28;20215;-74
2021/10/30 01:57:36;;;;;;;7.70;6.85;;;3.90;99.90;;;;;;5029998;28;20199;-75
2021/10/30 02:00:08;;;;;;;9.93;6.93;;;4.10;99.90;;;;;;5013052;28;20198;-74
2021/10/30 02:02:34;;;;;;;9.25;7.55;;;4.10;99.90;;;;;;5012377;28;20544;-74
2021/10/30 02:05:00;;;;;;;8.13;7.05;;;4.20;99.90;;;;;;5035517;28;20199;-74
2021/10/30 02:07:26;;;;;;;7.88;6.82;;;3.90;99.90;;;;;;5039107;28;20235;-73
2021/10/30 02:09:52;;;;;;;8.63;7.20;;;4.00;99.90;;;;;;5011557;28;20330;-74
2021/10/30 02:12:18;;;;;;;7.53;6.72;;;4.00;99.90;;;;;;5009578;28;20258;-74
2021/10/30 02:14:43;;;;;;;8.23;6.57;;;4.00;99.90;;;;;;5030484;28;20681;-73
2021/10/30 02:17:09;;;;;;;8.03;6.40;;;3.90;99.90;;;;;;5045033;28;20285;-73
2021/10/30 02:19:34;;;;;;;7.80;6.00;;;4.00;99.90;;;;;;5018564;28;20223;-73
2021/10/30 02:22:00;;;;;;;8.33;7.47;;;3.90;99.90;;;;;;5032967;28;20190;-73
2021/10/30 02:24:25;;;;;;;8.13;7.33;;;3.80;99.90;;;;;;5031345;28;20225;-74
2021/10/30 02:26:51;;;;;;;7.67;6.80;;;3.80;99.90;;;;;;5028494;28;20616;-73
2021/10/30 02:29:18;;;;;;;8.67;7.23;;;4.10;99.90;;;;;;5024927;28;20261;-74
2021/10/30 02:31:43;;;;;;;9.88;7.80;;;3.80;99.90;;;;;;5014702;28;20200;-73
2021/10/30 02:34:09;;;;;;;8.30;7.50;;;4.00;99.90;;;;;;5014292;28;20194;-73
2021/10/30 02:36:34;;;;;;;9.17;7.20;;;4.00;99.90;;;;;;5029102;28;20218;-74
2021/10/30 02:39:00;;;;;;;9.30;7.50;;;3.80;99.90;;;;;;5032601;28;20546;-74
2021/10/30 02:41:26;;;;;;;8.53;6.90;;;3.80;99.90;;;;;;5030541;28;20632;-73
2021/10/30 02:43:52;;;;;;;9.77;7.28;;;3.90;99.90;;;;;;5016096;28;20545;-73
2021/10/30 02:46:17;;;;;;;7.57;6.77;;;3.60;99.90;;;;;;5006456;28;20179;-74
2021/10/30 02:48:43;;;;;;;8.47;6.33;;;3.60;99.90;;;;;;5015388;28;20230;-74
2021/10/30 02:51:08;;;;;;;11.50;7.63;;;3.70;99.90;;;;;;5012252;28;20694;-74
2021/10/30 02:53:34;;;;;;;7.30;6.50;;;3.80;99.90;;;;;;5006609;28;20237;-74
2021/10/30 02:55:59;;;;;;;9.73;6.90;;;3.70;99.90;;;;;;5019955;28;20273;-74
2021/10/30 02:58:25;;;;;;;7.83;7.03;;;3.80;99.90;;;;;;5019589;28;20267;-74
2021/10/30 03:00:50;;;;;;;7.40;6.60;;;3.60;99.90;;;;;;5039489;28;20194;-74
2021/10/30 03:03:16;;;;;;;11.60;7.17;;;3.30;99.90;;;;;;5022827;28;20192;-74
2021/10/30 03:05:42;;;;;;;10.03;7.10;;;3.40;99.90;;;;;;5015635;28;20236;-74
2021/10/30 03:08:07;;;;;;;8.40;7.50;;;3.60;99.90;;;;;;5014158;28;20226;-74
2021/10/30 03:10:33;;;;;;;8.63;7.13;;;3.40;99.90;;;;;;5035809;28;20217;-74
2021/10/30 03:12:59;;;;;;;11.17;9.27;;;3.40;99.90;;;;;;5033182;28;20194;-74
2021/10/30 03:15:24;;;;;;;8.07;7.27;;;3.70;99.90;;;;;;5026953;28;20581;-74
2021/10/30 03:17:50;;;;;;;9.20;7.40;;;3.50;99.90;;;;;;5010638;28;20184;-74
2021/10/30 03:20:15;;;;;;;7.50;6.23;;;3.40;99.90;;;;;;5031526;28;20189;-74
2021/10/30 03:22:41;;;;;;;7.53;6.50;;;3.60;99.90;;;;;;5027517;28;20273;-74
2021/10/30 03:25:07;;;;;;;7.67;6.90;;;3.40;99.90;;;;;;5026436;28;20191;-74
2021/10/30 03:27:32;;;;;;;8.98;6.93;;;3.70;99.90;;;;;;5024267;28;20249;-74
2021/10/30 03:29:58;;;;;;;6.47;5.87;;;3.20;99.90;;;;;;5046563;28;20186;-74
2021/10/30 03:32:24;;;;;;;7.00;6.10;;;3.30;99.90;;;;;;5019409;28;20190;-75
2021/10/30 03:34:49;;;;;;;9.10;5.97;;;3.30;99.90;;;;;;5012385;28;20249;-74
2021/10/30 03:37:15;;;;;;;9.20;7.00;;;3.30;99.90;;;;;;5013349;28;20253;-73
2021/10/30 03:39:40;;;;;;;10.70;7.50;;;3.30;99.90;;;;;;5044461;28;20596;-75
2021/10/30 03:42:06;;;;;;;7.53;6.80;;;3.40;99.90;;;;;;5039779;28;20192;-74
2021/10/30 03:44:32;;;;;;;8.13;7.05;;;3.10;99.90;;;;;;5023328;28;20179;-74
2021/10/30 03:46:57;;;;;;;8.30;7.10;;;3.30;99.90;;;;;;5021522;28;20310;-75
2021/10/30 03:49:23;;;;;;;9.13;8.03;;;3.30;99.90;;;;;;5019658;28;20183;-74
2021/10/30 03:51:49;;;;;;;7.87;7.10;;;3.40;99.90;;;;;;5019625;28;20190;-74
2021/10/30 03:54:14;;;;;;;8.80;6.80;;;3.10;99.90;;;;;;5013109;28;20180;-74
2021/10/30 03:56:40;;;;;;;14.07;9.17;;;3.20;99.90;;;;;;5007298;28;20685;-74
2021/10/30 03:59:05;;;;;;;11.30;7.90;;;3.30;99.90;;;;;;5032712;28;20265;-74
2021/10/30 04:01:31;;;;;;;10.80;7.90;;;3.40;99.90;;;;;;5047724;28;20224;-74
2021/10/30 04:03:56;;;;;;;13.00;8.00;;;3.40;99.90;;;;;;5030387;28;20202;-74
2021/10/30 04:06:22;;;;;;;9.83;7.70;;;3.30;99.90;;;;;;5024124;28;20326;-74
2021/10/30 04:08:47;;;;;;;7.80;6.87;;;3.30;99.90;;;;;;5031029;28;20186;-74
2021/10/30 04:11:13;;;;;;;10.10;7.43;;;3.20;99.90;;;;;;5037332;28;20558;-73
2021/10/30 04:13:38;;;;;;;10.60;7.40;;;3.10;99.90;;;;;;5025549;28;20183;-75
2021/10/30 04:16:04;;;;;;;11.97;7.50;;;3.40;99.90;;;;;;5026065;28;20426;-74
2021/10/30 04:18:30;;;;;;;9.20;7.27;;;3.10;99.90;;;;;;5026028;28;20652;-74
2021/10/30 04:20:55;;;;;;;9.27;7.17;;;3.10;99.90;;;;;;5044164;28;20183;-74
2021/10/30 04:23:20;;;;;;;8.50;6.57;;;3.30;99.90;;;;;;5022064;28;20679;-73
2021/10/30 04:25:46;;;;;;;13.00;7.77;;;3.20;99.90;;;;;;5030519;28;20263;-74
2021/10/30 04:28:12;;;;;;;13.70;8.07;;;3.00;99.90;;;;;;5013985;28;20305;-74
2021/10/30 04:30:37;;;;;;;11.60;10.40;;;3.20;99.90;;;;;;5023940;28;20611;-74
2021/10/30 04:33:04;;;;;;;17.00;11.77;;;3.10;99.90;;;;;;5020478;28;20187;-74
2021/10/30 04:35:30;;;;;;;11.80;9.90;;;3.10;99.90;;;;;;5005473;28;20234;-73
2021/10/30 04:37:55;;;;;;;12.10;10.37;;;3.10;99.90;;;;;;5013294;28;20179;-73
2021/10/30 04:40:21;;;;;;;9.90;8.30;;;3.20;99.90;;;;;;5021523;28;20202;-73
2021/10/30 04:42:46;;;;;;;10.87;7.60;;;3.20;99.90;;;;;;5019948;28;20659;-73
2021/10/30 04:45:12;;;;;;;8.70;7.80;;;3.00;99.90;;;;;;5042732;28;20587;-74
2021/10/30 04:47:38;;;;;;;8.27;6.53;;;2.90;99.90;;;;;;5035822;28;20222;-74
2021/10/30 04:50:04;;;;;;;9.77;7.70;;;2.80;99.90;;;;;;5010333;28;20730;-74
2021/10/30 04:52:30;;;;;;;8.82;6.18;;;3.00;99.90;;;;;;5017220;28;20180;-74
2021/10/30 04:54:56;;;;;;;8.53;7.20;;;3.10;99.90;;;;;;5044631;28;20706;-73
2021/10/30 04:57:21;;;;;;;10.43;7.30;;;2.90;99.90;;;;;;5011638;28;20581;-74
2021/10/30 04:59:47;;;;;;;9.17;7.13;;;2.80;99.90;;;;;;5007243;28;20576;-74
2021/10/30 05:02:13;;;;;;;9.67;7.93;;;2.90;99.90;;;;;;5028489;28;20182;-74
2021/10/30 05:04:38;;;;;;;7.90;6.63;;;3.10;99.90;;;;;;5024777;28;20325;-74
2021/10/30 05:07:04;;;;;;;6.83;6.17;;;2.80;99.90;;;;;;5026091;28;20260;-74
2021/10/30 05:09:31;;;;;;;8.10;6.73;;;2.80;99.90;;;;;;5028095;28;20175;-73
2021/10/30 05:11:56;;;;;;;7.75;6.80;;;2.80;99.90;;;;;;5021471;28;20207;-73
2021/10/30 05:14:25;;;;;;;14.20;8.03;;;2.90;99.90;;;;;;5040922;28;20176;-74
2021/10/30 05:16:50;;;;;;;9.38;6.60;;;2.70;99.90;;;;;;5021456;28;20788;-73
2021/10/30 05:19:17;;;;;;;7.47;6.70;;;2.50;99.90;;;;;;5020584;28;20237;-74
2021/10/30 05:21:43;;;;;;;9.90;7.60;;;2.70;99.90;;;;;;5021401;28;20277;-73
2021/10/30 05:24:08;;;;;;;11.50;8.57;;;2.70;99.90;;;;;;5009019;28;20557;-73
2021/10/30 05:26:34;;;;;;;8.63;6.60;;;2.60;99.90;;;;;;5038023;28;20198;-74
2021/10/30 05:28:59;;;;;;;9.47;7.90;;;2.70;99.90;;;;;;5030399;28;20286;-73
2021/10/30 05:31:25;;;;;;;11.23;8.13;;;2.60;99.90;;;;;;5022159;28;20179;-73
2021/10/30 05:33:51;;;;;;;8.10;7.13;;;2.70;99.90;;;;;;5022758;28;20191;-73
2021/10/30 05:36:19;;;;;;;8.50;7.57;;;2.70;99.90;;;;;;5046781;28;20623;-73
2021/10/30 05:38:48;;;;;;;10.02;8.07;;;2.50;99.90;;;;;;5033996;28;20812;-74
2021/10/30 05:41:16;;;;;;;11.77;9.00;;;2.70;99.90;;;;;;5026343;28;20242;-74
2021/10/30 05:43:41;;;;;;;10.25;8.43;;;2.80;99.90;;;;;;5012636;28;20188;-74
2021/10/30 05:46:07;;;;;;;9.27;8.27;;;2.70;99.90;;;;;;5034046;28;20657;-74
2021/10/30 05:48:34;;;;;;;11.27;9.20;;;2.90;99.90;;;;;;5033958;28;20230;-74
2021/10/30 05:51:00;;;;;;;11.88;9.63;;;3.00;99.90;;;;;;5029318;28;20498;-74
2021/10/30 05:53:25;;;;;;;12.00;8.57;;;2.90;99.90;;;;;;5021798;28;20187;-76
2021/10/30 05:55:50;;;;;;;9.77;7.13;;;2.90;99.90;;;;;;5021256;28;20266;-77
2021/10/30 05:58:16;;;;;;;9.97;8.27;;;2.50;99.90;;;;;;5049490;28;20171;-76
2021/10/30 06:00:42;;;;;;;9.40;6.60;;;2.70;99.90;;;;;;5051348;28;20660;-77
2021/10/30 06:03:08;;;;;;;11.07;7.50;;;2.50;99.90;;;;;;5038008;28;20183;-75
2021/10/30 06:05:33;;;;;;;10.20;7.80;;;2.70;99.90;;;;;;5026527;28;20520;-76
2021/10/30 06:07:59;;;;;;;10.17;8.33;;;2.60;99.90;;;;;;5032155;28;20988;-76
2021/10/30 06:10:28;;;;;;;10.73;8.48;;;2.70;99.90;;;;;;5034664;28;20279;-76
2021/10/30 06:12:54;;;;;;;13.70;9.55;;;2.60;99.90;;;;;;5029818;28;20194;-75
2021/10/30 06:15:20;;;;;;;12.17;9.63;;;2.60;99.90;;;;;;5014411;28;20185;-76
2021/10/30 06:17:45;;;;;;;13.27;10.60;;;2.70;99.90;;;;;;5025312;28;20278;-76
2021/10/30 06:20:11;;;;;;;13.73;9.60;;;2.70;99.90;;;;;;5007875;28;20186;-76
2021/10/30 06:22:42;;;;;;;13.30;10.60;;;2.70;99.90;;;;;;5010925;28;20203;-75
2021/10/30 06:25:08;;;;;;;15.48;11.23;;;2.80;99.90;;;;;;5014820;28;20447;-75
2021/10/30 06:27:33;;;;;;;12.75;9.63;;;2.90;99.90;;;;;;5019143;28;20574;-75
2021/10/30 06:29:59;;;;;;;10.27;9.13;;;2.80;99.90;;;;;;5027492;28;20233;-76
2021/10/30 06:32:25;;;;;;;10.67;9.17;;;2.70;99.90;;;;;;5030017;28;20666;-75
2021/10/30 06:34:50;;;;;;;10.67;8.73;;;2.70;99.90;;;;;;5034492;28;20283;-75
2021/10/30 06:37:16;;;;;;;8.40;7.57;;;2.80;99.90;;;;;;5026204;28;20809;-76
2021/10/30 06:39:41;;;;;;;10.27;8.40;;;2.80;99.90;;;;;;5016116;28;20211;-76
2021/10/30 06:42:07;;;;;;;12.53;10.77;;;2.70;99.90;;;;;;5009398;28;20184;-75
2021/10/30 06:44:32;;;;;;;22.37;16.90;;;2.80;99.90;;;;;;5028323;28;20237;-74
2021/10/30 06:46:58;;;;;;;19.53;15.50;;;2.90;99.90;;;;;;5014488;28;20237;-79
2021/10/30 06:49:25;;;;;;;18.47;15.07;;;3.00;99.90;;;;;;5019942;28;20190;-81
2021/10/30 06:51:51;;;;;;;16.15;12.68;;;3.30;99.90;;;;;;5027007;28;20614;-79
2021/10/30 06:54:17;;;;;;;22.23;15.77;;;3.30;99.90;;;;;;5023422;28;20269;-75
2021/10/30 06:56:43;;;;;;;23.20;17.57;;;3.60;99.90;;;;;;5026526;28;20572;-81
2021/10/30 06:59:09;;;;;;;21.80;17.45;;;3.80;99.90;;;;;;5019559;28;20194;-82
2021/10/30 07:01:35;;;;;;;20.17;17.07;;;3.70;99.90;;;;;;5036227;28;20554;-80
2021/10/30 07:04:02;;;;;;;21.48;17.33;;;4.20;99.90;;;;;;5029040;28;20191;-77
2021/10/30 07:06:28;;;;;;;22.85;17.52;;;4.10;99.90;;;;;;5022660;28;20250;-80
2021/10/30 07:08:56;;;;;;;20.00;15.37;;;4.40;99.90;;;;;;5012012;28;20272;-76
2021/10/30 07:11:25;;;;;;;16.58;13.60;;;4.70;99.90;;;;;;5045586;28;20830;-80
2021/10/30 07:13:51;;;;;;;14.38;11.32;;;4.80;99.90;;;;;;5032151;28;20191;-78
2021/10/30 07:16:17;;;;;;;17.23;12.40;;;5.20;99.90;;;;;;5019697;28;20211;-79
2021/10/30 07:18:44;;;;;;;19.90;16.73;;;5.20;99.90;;;;;;5023188;28;20297;-79
2021/10/30 07:21:10;;;;;;;20.42;16.10;;;5.60;99.90;;;;;;5024933;28;20282;-78
2021/10/30 07:23:36;;;;;;;19.67;15.73;;;5.50;99.90;;;;;;5035848;28;20186;-78
2021/10/30 07:26:02;;;;;;;16.73;14.20;;;6.00;99.90;;;;;;5017742;28;20196;-79
2021/10/30 07:28:28;;;;;;;14.02;12.45;;;6.00;99.90;;;;;;5020297;28;20568;-72
2021/10/30 07:30:53;;;;;;;13.23;11.30;;;6.40;99.90;;;;;;5024811;28;20266;-72
2021/10/30 07:33:19;;;;;;;11.73;10.10;;;6.20;99.90;;;;;;5020101;23;20239;-76
2021/10/30 07:35:57;;;;;;;11.97;10.30;;;6.20;99.90;;;;;;4999740;28;20206;-76
2021/10/30 07:38:23;;;;;;;10.63;9.52;;;6.80;99.90;;;;;;5000678;28;20766;-77
2021/10/30 07:40:49;;;;;;;10.00;9.00;;;6.90;99.90;;;;;;5000910;28;20191;-76
2021/10/30 07:43:15;;;;;;;11.75;9.30;;;6.80;99.90;;;;;;5003796;28;20439;-76
2021/10/30 07:45:41;;;;;;;11.17;9.77;;;7.00;99.90;;;;;;5006428;28;20695;-76
2021/10/30 07:48:08;;;;;;;13.95;10.70;;;7.10;99.90;;;;;;5002770;28;20219;-76
2021/10/30 07:50:34;;;;;;;13.82;11.48;;;7.10;99.90;;;;;;5002184;28;20623;-76
2021/10/30 07:53:01;;;;;;;12.82;11.18;;;7.40;99.90;;;;;;5003895;28;20709;-75
2021/10/30 07:55:28;;;;;;;11.65;10.45;;;7.60;99.90;;;;;;5006699;28;20199;-76
2021/10/30 07:57:54;;;;;;;13.45;11.38;;;7.90;99.90;;;;;;5006348;28;20202;-76
2021/10/30 08:00:20;;;;;;;12.07;10.87;;;8.20;99.90;;;;;;5000622;28;20560;-76
2021/10/30 08:02:45;;;;;;;14.18;11.57;;;8.20;99.90;;;;;;5000022;28;20663;-76
2021/10/30 08:05:12;;;;;;;10.60;9.60;;;8.50;99.90;;;;;;5000922;28;20191;-76
2021/10/30 08:07:39;;;;;;;10.68;9.60;;;8.70;99.90;;;;;;5000238;28;20234;-77
2021/10/30 08:10:06;;;;;;;11.20;10.00;;;8.70;99.90;;;;;;5004233;28;20326;-75
2021/10/30 08:12:33;;;;;;;12.70;10.98;;;8.80;99.90;;;;;;5004280;28;20184;-75
2021/10/30 08:14:59;;;;;;;12.50;11.07;;;9.10;99.90;;;;;;5002926;28;20966;-76
2021/10/30 08:17:25;;;;;;;12.77;11.38;;;9.70;99.90;;;;;;5002117;28;20617;-75
2021/10/30 08:19:50;;;;;;;14.10;11.90;;;9.80;99.90;;;;;;5006225;28;20191;-75
2021/10/30 08:22:17;;;;;;;14.30;12.30;;;10.10;99.90;;;;;;5004316;28;20189;-75
2021/10/30 08:24:42;;;;;;;11.50;10.30;;;10.30;99.90;;;;;;5002282;28;20192;-76
2021/10/30 08:27:08;;;;;;;12.47;11.37;;;10.70;99.90;;;;;;5001204;28;20246;-76
2021/10/30 08:29:33;;;;;;;11.30;10.17;;;10.60;99.90;;;;;;5006229;28;20549;-75
2021/10/30 08:32:00;;;;;;;11.13;10.03;;;11.00;99.90;;;;;;5001127;28;20254;-76
2021/10/30 08:34:26;;;;;;;11.13;10.13;;;11.00;99.90;;;;;;5001966;28;20180;-75
2021/10/30 08:36:52;;;;;;;11.10;9.93;;;11.00;99.90;;;;;;5002402;28;20640;-75
2021/10/30 08:39:17;;;;;;;13.27;10.27;;;11.20;99.90;;;;;;5000963;28;20643;-75
2021/10/30 08:41:43;;;;;;;11.00;9.90;;;11.30;99.90;;;;;;5005796;28;20186;-75
2021/10/30 08:44:09;;;;;;;16.60;12.37;;;11.40;99.90;;;;;;5003648;28;20186;-75
2021/10/30 08:46:36;;;;;;;11.00;9.83;;;11.70;99.90;;;;;;5002461;28;20240;-76
2021/10/30 08:49:05;;;;;;;11.30;10.20;;;11.90;99.90;;;;;;5002403;28;20279;-75
2021/10/30 08:51:32;;;;;;;12.48;11.23;;;12.30;99.90;;;;;;5001810;28;20190;-77
2021/10/30 08:53:57;;;;;;;13.38;12.18;;;12.30;99.90;;;;;;5005911;28;20219;-77
2021/10/30 08:56:24;;;;;;;10.30;9.37;;;12.20;99.90;;;;;;5003692;28;20188;-76
2021/10/30 08:58:49;;;;;;;11.95;10.95;;;12.40;99.90;;;;;;5002287;28;20192;-77
2021/10/30 09:01:15;;;;;;;10.60;9.50;;;12.50;99.90;;;;;;5000423;28;20187;-76
2021/10/30 09:03:41;;;;;;;11.63;10.63;;;12.50;99.90;;;;;;5000610;28;20202;-76
2021/10/30 09:06:07;;;;;;;8.63;7.82;;;12.60;99.90;;;;;;5003769;28;20439;-76
2021/10/30 09:08:34;;;;;;;10.60;9.50;;;12.40;99.90;;;;;;5005853;28;20218;-76
2021/10/30 09:11:08;;;;;;;7.60;6.93;;;12.50;99.90;;;;;;5005504;28;20197;-75
2021/10/30 09:13:34;;;;;;;7.90;7.20;;;12.10;99.90;;;;;;5000502;28;20430;-76
2021/10/30 09:16:01;;;;;;;8.10;7.40;;;12.30;99.90;;;;;;5002997;28;20270;-76
2021/10/30 09:18:28;;;;;;;8.18;7.45;;;11.90;99.90;;;;;;5002543;28;20211;-76
2021/10/30 09:21:12;;;;;;;9.20;8.32;;;11.70;99.90;;;;;;5004758;28;20197;-76
2021/10/30 09:23:47;;;;;;;8.38;7.10;;;11.60;99.90;;;;;;5005383;28;20199;-76
2021/10/30 09:26:19;;;;;;;8.82;7.93;;;11.60;99.90;;;;;;5001474;28;20268;-76
2021/10/30 09:28:54;;;;;;;10.63;9.57;;;11.70;99.90;;;;;;5003682;28;20208;-76
2021/10/30 09:31:24;;;;;;;8.50;7.63;;;11.60;99.90;;;;;;5005852;28;20191;-76
2021/10/30 09:33:56;;;;;;;11.82;10.50;;;11.50;99.90;;;;;;5003392;28;20231;-76
2021/10/30 09:36:26;;;;;;;10.02;9.02;;;11.30;99.90;;;;;;5000234;28;20839;-76
2021/10/30 09:38:59;;;;;;;10.70;9.30;;;11.50;99.90;;;;;;5001404;28;20198;-76
2021/10/30 09:41:44;;;;;;;10.10;9.10;;;11.20;99.90;;;;;;5002045;28;20188;-75
2021/10/30 09:44:17;;;;;;;12.52;10.25;;;11.20;99.90;;;;;;5003295;28;20190;-75
2021/10/30 09:46:45;;;;;;;11.50;10.50;;;11.40;99.90;;;;;;5006931;28;20207;-76
2021/10/30 09:49:20;;;;;;;10.48;9.38;;;11.30;99.90;;;;;;5002745;28;20692;-76
2021/10/30 09:51:51;;;;;;;9.52;8.60;;;11.40;99.90;;;;;;5006494;28;20307;-76
2021/10/30 09:54:40;;;;;;;8.75;7.70;;;11.60;99.90;;;;;;5007413;28;20272;-76
2021/10/30 09:57:07;;;;;;;8.63;7.80;;;11.50;99.90;;;;;;4988170;28;20195;-76
2021/10/30 09:59:36;;;;;;;8.00;7.30;;;11.50;99.90;;;;;;5004186;28;20187;-76
2021/10/30 10:02:05;;;;;;;8.55;7.75;;;11.60;99.90;;;;;;5005052;28;21067;-76
2021/10/30 10:04:31;;;;;;;9.82;7.20;;;11.50;99.90;;;;;;5008310;28;20199;-76
2021/10/30 10:06:58;;;;;;;8.53;7.40;;;11.40;99.90;;;;;;5008604;28;20262;-76
2021/10/30 10:09:23;;;;;;;10.07;8.63;;;11.70;99.90;;;;;;5002450;28;20847;-76
2021/10/30 10:11:50;;;;;;;11.00;10.00;;;11.80;99.90;;;;;;5006833;28;20186;-76
2021/10/30 10:14:17;;;;;;;9.15;8.25;;;11.50;99.90;;;;;;5007302;28;20193;-76
2021/10/30 10:16:45;;;;;;;8.43;7.53;;;11.60;99.90;;;;;;5007743;28;20203;-76
2021/10/30 10:19:11;;;;;;;8.55;7.70;;;11.40;99.90;;;;;;5002462;28;20207;-76
2021/10/30 10:21:38;;;;;;;7.87;7.00;;;11.60;99.90;;;;;;5006121;28;20184;-76
2021/10/30 10:24:13;;;;;;;7.00;6.28;;;11.50;99.90;;;;;;5006023;28;20468;-76
2021/10/30 10:26:45;;;;;;;8.05;6.60;;;11.60;99.90;;;;;;5007840;28;20199;-76
2021/10/30 10:29:11;;;;;;;8.45;7.60;;;11.40;99.90;;;;;;5002762;28;20190;-75
2021/10/30 10:31:51;;;;;;;7.57;6.90;;;11.80;99.90;;;;;;5006074;28;20252;-74
2021/10/30 10:34:21;;;;;;;8.60;7.82;;;11.40;99.90;;;;;;5005143;28;20252;-76
2021/10/30 10:36:47;;;;;;;7.20;6.50;;;11.50;99.90;;;;;;5003957;28;20194;-75
2021/10/30 10:39:16;;;;;;;8.30;7.45;;;11.70;99.90;;;;;;5005916;28;20718;-76
2021/10/30 10:41:46;;;;;;;7.82;7.18;;;11.80;99.90;;;;;;5006189;28;20193;-76
2021/10/30 10:44:36;;;;;;;7.32;6.63;;;12.10;99.90;;;;;;5002323;28;20267;-75
2021/10/30 10:47:03;;;;;;;7.25;6.55;;;11.90;99.90;;;;;;5000991;28;20235;-76
2021/10/30 10:49:36;;;;;;;7.30;6.65;;;11.90;99.90;;;;;;5003659;28;20416;-76
2021/10/30 10:52:19;;;;;;;6.25;5.75;;;12.00;99.90;;;;;;5005584;28;20264;-73
2021/10/30 10:54:58;;;;;;;7.25;6.55;;;12.00;99.90;;;;;;5007295;28;20223;-76
2021/10/30 10:57:24;;;;;;;6.97;6.37;;;12.00;99.90;;;;;;5003515;28;20191;-77
2021/10/30 11:00:05;;;;;;;6.93;6.33;;;12.00;99.90;;;;;;5001323;28;20513;-76
2021/10/30 11:02:38;;;;;;;8.13;7.43;;;12.00;99.90;;;;;;5006909;28;20213;-76
2021/10/30 11:05:07;;;;;;;8.18;7.43;;;11.90;99.90;;;;;;5005286;28;20207;-76
2021/10/30 11:07:37;;;;;;;7.88;7.18;;;12.00;99.90;;;;;;5002911;28;20209;-76
2021/10/30 11:10:32;;;;;;;6.30;5.70;;;12.20;99.90;;;;;;5002015;28;20618;-73
2021/10/30 11:13:09;;;;;;;7.22;6.60;;;11.90;99.90;;;;;;5003330;28;20195;-75
2021/10/30 11:15:37;;;;;;;7.00;6.40;;;11.90;99.90;;;;;;5008815;28;20198;-75
2021/10/30 11:20:43;;;;;;;8.20;7.40;;;11.90;99.90;;;;;;5001657;28;20534;-75
2021/10/30 11:23:23;;;;;;;7.70;6.95;;;11.90;99.90;;;;;;5002772;28;20846;-75
2021/10/30 11:26:09;;;;;;;8.47;7.67;;;12.00;99.90;;;;;;5006083;28;20195;-75
2021/10/30 11:28:39;;;;;;;9.13;8.10;;;11.80;99.90;;;;;;4996392;28;20471;-76
2021/10/30 11:31:16;;;;;;;8.00;7.30;;;12.20;99.90;;;;;;5001449;28;20298;-76
2021/10/30 11:33:55;;;;;;;9.25;8.35;;;12.30;99.90;;;;;;5003765;28;20894;-76
2021/10/30 11:36:20;;;;;;;9.00;8.10;;;12.10;99.90;;;;;;5004575;28;20603;-75
2021/10/30 11:38:46;;;;;;;8.60;7.80;;;12.10;99.90;;;;;;5006439;28;20196;-76
2021/10/30 11:41:15;;;;;;;8.33;7.53;;;12.30;99.90;;;;;;4992957;28;20280;-76
2021/10/30 11:43:42;;;;;;;10.33;8.30;;;12.20;99.90;;;;;;5002238;28;20222;-76
2021/10/30 11:46:10;;;;;;;11.27;10.33;;;12.00;99.90;;;;;;5004886;28;20836;-76
2021/10/30 11:48:41;;;;;;;21.30;15.47;;;12.10;99.90;;;;;;4991965;28;20478;-76
2021/10/30 11:51:09;;;;;;;20.07;17.97;;;11.90;99.90;;;;;;5004591;28;20545;-76
2021/10/30 11:53:39;;;;;;;14.55;12.38;;;12.00;99.90;;;;;;5001401;28;20492;-75
2021/10/30 11:56:11;;;;;;;10.82;8.70;;;11.60;99.90;;;;;;5002985;28;20192;-76
2021/10/30 11:58:46;;;;;;;16.30;9.93;;;11.50;99.90;;;;;;5006179;28;20674;-76
2021/10/30 12:01:34;;;;;;;10.50;9.27;;;11.50;99.90;;;;;;5004622;28;20205;-74
2021/10/30 12:04:26;;;;;;;12.75;10.77;;;11.20;99.90;;;;;;5003828;28;20196;-76
2021/10/30 12:06:57;;;;;;;12.50;11.02;;;11.30;99.90;;;;;;5002812;28;20195;-75
2021/10/30 12:09:29;;;;;;;12.60;11.13;;;11.10;99.90;;;;;;5010910;28;20194;-75
2021/10/30 12:11:59;;;;;;;10.75;9.65;;;11.00;99.90;;;;;;5009006;28;20598;-75
2021/10/30 12:14:34;;;;;;;9.25;8.40;;;10.90;99.90;;;;;;5000591;28;20198;-75
2021/10/30 12:17:10;;;;;;;12.20;11.00;;;11.10;99.90;;;;;;4999891;28;20202;-74
2021/10/30 12:19:37;;;;;;;11.27;10.07;;;10.90;99.90;;;;;;5005556;28;20739;-74
2021/10/30 12:22:19;;;;;;;14.05;12.68;;;11.00;99.90;;;;;;5003414;28;20224;-74
2021/10/30 12:24:55;;;;;;;13.48;12.20;;;10.70;99.90;;;;;;4997876;28;20627;-73
2021/10/30 12:27:21;;;;;;;12.50;11.40;;;10.80;99.90;;;;;;5000680;28;20226;-74
2021/10/30 12:29:47;;;;;;;11.47;10.37;;;11.00;99.90;;;;;;5000922;28;20180;-76
2021/10/30 12:32:15;;;;;;;11.33;10.23;;;11.10;99.90;;;;;;5000203;28;20285;-75
2021/10/30 12:35:01;;;;;;;11.43;10.23;;;11.10;99.90;;;;;;4995770;28;20440;-75
2021/10/30 12:37:34;;;;;;;11.13;10.05;;;11.00;99.90;;;;;;5000496;28;20232;-74
2021/10/30 12:40:07;;;;;;;10.85;9.85;;;11.00;99.90;;;;;;5005411;28;20763;-75
2021/10/30 12:42:36;;;;;;;11.55;10.35;;;10.90;99.90;;;;;;5006155;28;20196;-75
2021/10/30 12:45:03;;;;;;;11.73;10.40;;;11.30;99.90;;;;;;5003756;28;20613;-76
2021/10/30 12:47:31;;;;;;;12.15;11.05;;;11.10;99.90;;;;;;4997160;28;20211;-76
2021/10/30 12:50:04;;;;;;;14.50;10.43;;;11.00;99.90;;;;;;5001218;28;20191;-76